»·PEaware :: N501ER KSBP-KWHP

N501ER :: KSBP-KWHP

FLIGHT INFORMATION

Flight Status: Arrived
Operator: Privately registered:
United States
More flights under this callsign
Pilot: Ahmad S. (5672)
Aircraft: CESSNA 172 SKYHAWK
(C172)
More flights by this aircraft type
Origin: KSBP San Luis Co Regl
United States
Destination: KWHP Whiteman
United States
More flights between these airports :: More routes between these airports
Route: RZS V186 FIM
File this flight plan on PilotEdge
Remarks:
Altitude:
(Current/Filed)
7,000ft
Speed:
(Current/Filed)
110kts
Departed: 06-Aug-23 12:01 PM
Arrived: 06-Aug-23 01:28 PM
Distance/Time
Traveled:
125nm/1:27
Distance/Time
To Go:
Arrived

Flight Plot

Page will automatically refresh every two minutes.


Map Options




Map Legend


Flown Route
Filed Route
Departure Airport
Arrival Airport
Navaid (VOR, NDB)
Fix

Horizontal Profiles

Position Reports

Time Latitude Longitude Heading Altitude Ground
Speed
06-Aug-23 11:37 35.236177 -120.635914 42 214ft 0kts
06-Aug-23 11:38 35.236177 -120.635914 42 214ft 0kts
06-Aug-23 11:39 35.236177 -120.635914 42 214ft 0kts
06-Aug-23 11:40 35.236177 -120.635914 42 205ft 0kts
06-Aug-23 11:41 35.236177 -120.635914 42 205ft 0kts
06-Aug-23 11:44 35.236636 -120.636961 33 210ft 0kts
06-Aug-23 11:45 35.236636 -120.636961 33 210ft 0kts
06-Aug-23 11:46 35.236636 -120.636961 33 202ft 0kts
06-Aug-23 11:47 35.236636 -120.636961 33 202ft 0kts
06-Aug-23 11:48 35.236636 -120.636961 33 202ft 0kts
06-Aug-23 11:48 35.236636 -120.636961 33 202ft 0kts
06-Aug-23 11:49 35.236636 -120.636961 33 202ft 0kts
06-Aug-23 11:50 35.236636 -120.636961 33 202ft 0kts
06-Aug-23 11:52 35.236636 -120.636961 33 202ft 0kts
06-Aug-23 11:52 35.236636 -120.636961 33 202ft 0kts
06-Aug-23 11:53 35.236636 -120.636961 33 202ft 0kts
06-Aug-23 11:54 35.236664 -120.636935 38 206ft 3kts
06-Aug-23 11:55 35.235176 -120.635329 126 208ft 11kts
06-Aug-23 11:56 35.233307 -120.632144 164 219ft 5kts
06-Aug-23 11:57 35.233102 -120.632232 232 219ft 0kts
06-Aug-23 11:58 35.233102 -120.632232 232 219ft 0kts
06-Aug-23 11:59 35.233085 -120.632261 236 219ft 2kts
06-Aug-23 12:00 35.237790 -120.642367 301 325ft 79kts
06-Aug-23 12:01 35.250761 -120.665067 304 1239ft 79kts
06-Aug-23 12:02 35.263726 -120.688132 309 2046ft 84kts
06-Aug-23 12:03 35.277751 -120.711372 316 2841ft 87kts
06-Aug-23 12:04 35.290992 -120.736514 308 3608ft 89kts
06-Aug-23 12:05 35.305310 -120.760859 316 4330ft 88kts
06-Aug-23 12:06 35.319883 -120.784405 312 4997ft 87kts
06-Aug-23 12:07 35.333153 -120.809140 311 5674ft 86kts
06-Aug-23 12:08 35.346785 -120.833606 311 6268ft 87kts
06-Aug-23 12:09 35.360546 -120.858456 312 6716ft 88kts
06-Aug-23 12:10 35.344367 -120.878411 215 6998ft 114kts
06-Aug-23 12:11 35.314704 -120.901027 216 7001ft 132kts
06-Aug-23 12:12 35.285455 -120.900159 103 6984ft 125kts
06-Aug-23 12:13 35.275791 -120.859986 101 6981ft 124kts
06-Aug-23 12:14 35.266200 -120.819064 103 6985ft 125kts
06-Aug-23 12:15 35.256227 -120.776504 101 6991ft 133kts
06-Aug-23 12:16 35.236211 -120.737961 128 6979ft 135kts
06-Aug-23 12:17 35.212109 -120.705401 128 6974ft 125kts
06-Aug-23 12:18 35.188398 -120.673457 128 6982ft 129kts
06-Aug-23 12:19 35.164403 -120.641152 128 6980ft 128kts
06-Aug-23 12:20 35.140580 -120.609102 128 6974ft 124kts
06-Aug-23 12:21 35.117467 -120.578042 128 6973ft 125kts
06-Aug-23 12:22 35.093605 -120.546014 128 6982ft 128kts
06-Aug-23 12:23 35.069788 -120.514058 129 7024ft 127kts
06-Aug-23 12:24 35.046074 -120.482273 128 7023ft 124kts
06-Aug-23 12:25 35.021967 -120.450019 129 7031ft 130kts
06-Aug-23 12:26 34.998113 -120.418095 128 7027ft 126kts
06-Aug-23 12:27 34.974956 -120.387139 128 7025ft 125kts
06-Aug-23 12:28 34.951123 -120.355328 128 7030ft 127kts
06-Aug-23 12:29 34.927542 -120.323873 128 7018ft 123kts
06-Aug-23 12:30 34.904213 -120.292768 128 7024ft 126kts
06-Aug-23 12:31 34.879926 -120.260455 128 7006ft 128kts
06-Aug-23 12:32 34.855560 -120.228049 128 6993ft 127kts
06-Aug-23 12:33 34.831161 -120.195620 128 6990ft 130kts
06-Aug-23 12:34 34.806977 -120.163502 128 6970ft 127kts
06-Aug-23 12:35 34.782995 -120.131700 127 6972ft 128kts
06-Aug-23 12:36 34.758821 -120.099645 128 6969ft 126kts
06-Aug-23 12:37 34.735137 -120.068280 128 6963ft 125kts
06-Aug-23 12:38 34.711645 -120.037210 128 6960ft 126kts
06-Aug-23 12:39 34.688332 -120.006401 128 6956ft 122kts
06-Aug-23 12:40 34.665355 -119.976062 128 6957ft 121kts
06-Aug-23 12:41 34.642617 -119.946054 129 6959ft 121kts
06-Aug-23 12:42 34.619650 -119.915797 129 6961ft 121kts
06-Aug-23 12:43 34.596977 -119.885933 130 6982ft 120kts
06-Aug-23 12:44 34.574089 -119.855804 129 6991ft 122kts
06-Aug-23 12:45 34.550907 -119.825346 129 6994ft 124kts
06-Aug-23 12:46 34.527069 -119.794286 129 7008ft 126kts
06-Aug-23 12:47 34.504412 -119.761582 118 7004ft 125kts
06-Aug-23 12:48 34.485740 -119.727068 120 7007ft 123kts
06-Aug-23 12:49 34.466755 -119.692053 120 7005ft 121kts
06-Aug-23 12:50 34.448089 -119.657679 120 6998ft 120kts
06-Aug-23 12:51 34.429793 -119.623986 120 6990ft 118kts
06-Aug-23 12:52 34.411812 -119.590919 121 7003ft 117kts
06-Aug-23 12:53 34.393723 -119.557701 120 6995ft 118kts
06-Aug-23 12:54 34.375628 -119.524346 121 6993ft 119kts
06-Aug-23 12:55 34.357307 -119.490882 120 6988ft 119kts
06-Aug-23 12:56 34.338982 -119.457328 120 6998ft 120kts
06-Aug-23 12:57 34.320384 -119.423283 120 6997ft 120kts
06-Aug-23 12:58 34.319071 -119.385179 81 6993ft 115kts
06-Aug-23 12:59 34.322014 -119.346770 81 6981ft 111kts
06-Aug-23 13:00 34.324891 -119.309035 81 6988ft 114kts
06-Aug-23 13:01 34.327732 -119.270293 82 6993ft 117kts
06-Aug-23 13:02 34.330763 -119.231354 81 6988ft 115kts
06-Aug-23 13:03 34.333637 -119.193056 82 6987ft 115kts
06-Aug-23 13:04 34.336589 -119.153961 82 6995ft 117kts
06-Aug-23 13:05 34.339522 -119.114811 82 6993ft 116kts
06-Aug-23 13:06 34.342444 -119.075481 83 6992ft 118kts
06-Aug-23 13:07 34.345359 -119.036081 83 6994ft 117kts
06-Aug-23 13:08 34.348277 -118.996483 83 7001ft 119kts
06-Aug-23 13:09 34.350942 -118.960206 82 6974ft 101kts
06-Aug-23 13:10 34.353629 -118.923440 83 6994ft 117kts
06-Aug-23 13:11 34.356521 -118.883579 83 6994ft 119kts
06-Aug-23 13:12 34.360865 -118.842403 81 6614ft 127kts
06-Aug-23 13:13 34.365421 -118.800066 81 6054ft 126kts
06-Aug-23 13:14 34.369950 -118.757841 82 5475ft 125kts
06-Aug-23 13:15 34.374338 -118.716866 83 4981ft 116kts
06-Aug-23 13:16 34.378301 -118.679853 84 4984ft 109kts
06-Aug-23 13:17 34.382222 -118.642882 84 4984ft 110kts
06-Aug-23 13:18 34.369650 -118.609331 126 4706ft 117kts
06-Aug-23 13:19 34.352776 -118.579326 127 4710ft 94kts
06-Aug-23 13:20 34.337546 -118.551495 127 4181ft 105kts
06-Aug-23 13:21 34.322470 -118.523541 128 3543ft 92kts
06-Aug-23 13:22 34.308677 -118.497961 128 2953ft 84kts
06-Aug-23 13:23 34.296417 -118.475125 125 2475ft 82kts
06-Aug-23 13:24 34.283141 -118.450541 123 1918ft 86kts
06-Aug-23 13:25 34.272935 -118.428047 139 1320ft 65kts
06-Aug-23 13:26 34.260181 -118.414405 139 1000ft 43kts
06-Aug-23 13:27 34.257993 -118.411457 15 1001ft 0kts
06-Aug-23 13:28 34.258839 -118.412317 319 1001ft 12kts
06-Aug-23 13:29 34.260297 -118.412474 49 999ft 6kts
06-Aug-23 13:30 34.260906 -118.411949 325 1000ft 0kts
06-Aug-23 13:31 34.260906 -118.411949 325 1000ft 0kts
06-Aug-23 13:32 34.260906 -118.411949 325 1000ft 0kts
06-Aug-23 13:33 34.260906 -118.411949 325 1000ft 0kts
06-Aug-23 13:34 34.260906 -118.411949 325 1000ft 0kts
06-Aug-23 13:35 34.260906 -118.411949 325 1000ft 0kts
06-Aug-23 13:36 34.260906 -118.411949 325 1000ft 0kts
06-Aug-23 13:37 34.260906 -118.411949 325 1000ft 0kts
06-Aug-23 13:38 34.260906 -118.411949 325 1000ft 0kts
06-Aug-23 13:39 34.260906 -118.411949 325 1000ft 0kts
06-Aug-23 13:40 34.260906 -118.411949 325 1000ft 0kts
06-Aug-23 13:41 34.260906 -118.411949 325 1000ft 0kts
06-Aug-23 13:42 34.260906 -118.411949 325 1000ft 0kts

Navigation Log

Ident Type
Flight plan parsing failed, navigation log unavailable